Time;durP1;ratioP1;P1;durP2;ratioP2;P2;SDS_P1;SDS_P2;PMS_P1;PMS_P2;Temp;Humidity;BMP_temperature;BMP_pressure;BME280_temperature;BME280_humidity;BME280_pressure;Samples;Min_cycle;Max_cycle;Signal;HPM_P1;HPM_P2
2022/03/14 00:00:47;;;;;;;;;;;;;;;15.00;46.56;100662.34;6112996;23;7053;-75
2022/03/14 00:03:15;;;;;;;;;;;;;;;15.01;46.87;100658.94;6111377;23;6794;-75
2022/03/14 00:05:42;;;;;;;;;;;;;;;15.00;46.34;100667.50;6089668;23;7820;-75
2022/03/14 00:08:08;;;;;;;;;;;;;;;15.00;46.32;100667.50;6112907;23;7169;-75
2022/03/14 00:21:39;;;;;;;;;;;;;;;14.83;47.17;100669.53;6112845;23;6862;-75
2022/03/14 00:24:08;;;;;;;;;;;;;;;14.87;46.92;100681.69;6088884;23;6941;-75
2022/03/14 00:26:34;;;;;;;;;;;;;;;14.89;47.50;100689.50;6113424;23;7203;-75
2022/03/14 00:29:00;;;;;;;;;;;;;;;14.91;46.98;100688.69;6087853;23;7192;-75
2022/03/14 00:31:26;;;;;;;;;;;;;;;14.92;48.00;100685.31;6112649;23;6925;-75
2022/03/14 00:33:52;;;;;;;;;;;;;;;14.91;47.06;100683.53;6110520;23;6949;-75
2022/03/14 00:36:19;;;;;;;;;;;;;;;14.91;47.77;100683.53;6112767;23;6775;-75
2022/03/14 00:38:45;;;;;;;;;;;;;;;14.94;47.08;100693.09;6113563;23;6787;-75
2022/03/14 00:41:12;;;;;;;;;;;;;;;14.93;47.59;100686.19;6112500;23;6779;-75
2022/03/14 00:43:39;;;;;;;;;;;;;;;14.92;47.23;100689.59;6112502;23;6824;-75
2022/03/14 00:46:05;;;;;;;;;;;;;;;14.92;47.35;100695.66;6113120;23;6786;-75
2022/03/14 00:48:32;;;;;;;;;;;;;;;14.93;47.74;100692.25;6114309;23;6917;-75
2022/03/14 00:50:59;;;;;;;;;;;;;;;14.93;48.13;100704.25;6111634;23;7232;-75
2022/03/14 00:53:24;;;;;;;;;;;;;;;14.92;47.88;100697.34;6112183;23;7067;-75
2022/03/14 00:55:50;;;;;;;;;;;;;;;14.92;47.50;100707.66;6113295;23;6771;-75
2022/03/14 00:58:16;;;;;;;;;;;;;;;14.90;47.49;100712.75;6135778;23;7092;-75
2022/03/14 01:00:43;;;;;;;;;;;;;;;14.91;47.53;100714.50;6109999;23;7165;-76
2022/03/14 01:03:08;;;;;;;;;;;;;;;14.92;47.84;100710.25;6112170;23;6783;-75
2022/03/14 01:05:34;;;;;;;;;;;;;;;14.92;46.94;100717.97;6088130;23;6841;-75
2022/03/14 01:08:00;;;;;;;;;;;;;;;14.93;47.52;100712.88;6114347;23;6929;-75
2022/03/14 01:10:26;;;;;;;;;;;;;;;14.95;47.79;100720.66;6112536;23;6945;-76
2022/03/14 01:12:52;;;;;;;;;;;;;;;14.97;47.87;100725.06;6112134;23;6911;-75
2022/03/14 01:15:18;;;;;;;;;;;;;;;14.98;47.77;100728.53;6111332;23;6783;-76
2022/03/14 01:17:44;;;;;;;;;;;;;;;14.97;47.45;100739.69;6112340;23;6771;-76
2022/03/14 01:20:11;;;;;;;;;;;;;;;14.98;47.10;100737.13;6110826;23;6770;-75
2022/03/14 01:22:38;;;;;;;;;;;;;;;14.98;47.26;100737.13;6113237;23;7038;-75
2022/03/14 01:25:05;;;;;;;;;;;;;;;14.97;47.61;100740.53;6137204;23;6931;-75
2022/03/14 01:27:31;;;;;;;;;;;;;;;14.97;47.29;100745.72;6112520;23;6866;-75
2022/03/14 01:29:56;;;;;;;;;;;;;;;14.97;47.60;100750.00;6135433;23;6925;-75
2022/03/14 01:32:23;;;;;;;;;;;;;;;14.96;47.93;100748.22;6112518;23;6775;-75
2022/03/14 01:34:49;;;;;;;;;;;;;;;14.95;47.75;100747.38;6087606;23;7255;-75
2022/03/14 01:37:19;;;;;;;;;;;;;;;14.96;47.71;100748.22;6115003;23;6847;-75
2022/03/14 01:39:46;;;;;;;;;;;;;;;14.94;47.02;100739.56;6111428;23;6980;-75
2022/03/14 01:42:19;;;;;;;;;;;;;;;14.87;48.10;100746.22;6111958;23;6786;-75
2022/03/14 01:44:47;;;;;;;;;;;;;;;14.74;48.52;100752.63;6112127;23;7216;-75
2022/03/14 01:47:16;;;;;;;;;;;;;;;14.63;48.69;100762.53;6111683;23;6787;-76
2022/03/14 01:49:44;;;;;;;;;;;;;;;14.54;49.32;100760.47;6112217;23;6994;-76
2022/03/14 01:52:11;;;;;;;;;;;;;;;14.46;48.75;100754.13;6111172;23;7235;-75
2022/03/14 01:54:38;;;;;;;;;;;;;;;14.41;49.62;100764.28;6111601;23;7185;-76
2022/03/14 01:57:05;;;;;;;;;;;;;;;14.38;49.29;100758.13;6113869;23;6850;-76
2022/03/14 01:59:32;;;;;;;;;;;;;;;14.36;49.52;100760.66;6110914;23;6779;-75
2022/03/14 02:01:59;;;;;;;;;;;;;;;14.35;50.08;100763.16;6110946;23;6783;-75
2022/03/14 02:04:25;;;;;;;;;;;;;;;14.33;50.08;100762.25;6113490;23;6975;-75
2022/03/14 02:06:56;;;;;;;;;;;;;;;14.31;50.27;100762.16;6114010;23;8463;-75
2022/03/14 02:09:22;;;;;;;;;;;;;;;14.26;50.19;100759.41;6112447;23;7115;-75
2022/03/14 02:11:57;;;;;;;;;;;;;;;14.21;50.25;100760.06;6113569;23;6786;-75
2022/03/14 02:14:24;;;;;;;;;;;;;;;14.14;50.48;100777.00;6115434;23;6783;-76
2022/03/14 02:16:52;;;;;;;;;;;;;;;14.08;51.12;100775.06;6113250;23;6955;-76
2022/03/14 02:19:20;;;;;;;;;;;;;;;14.05;50.77;100779.19;6113142;23;7120;-76
2022/03/14 02:21:46;;;;;;;;;;;;;;;14.01;51.82;100773.03;6087698;23;6787;-75
2022/03/14 02:24:12;;;;;;;;;;;;;;;14.01;51.21;100779.09;6112962;23;6991;-75
2022/03/14 02:26:39;;;;;;;;;;;;;;;13.99;51.81;100764.38;6113643;23;6779;-75
2022/03/14 02:29:09;;;;;;;;;;;;;;;13.99;51.77;100782.41;6115449;23;7912;-75
2022/03/14 02:31:39;;;;;;;;;;;;;;;13.97;51.62;100782.34;6112570;23;7062;-75
2022/03/14 02:34:07;;;;;;;;;;;;;;;13.98;51.75;100788.38;6113835;23;6791;-75
2022/03/14 02:36:38;;;;;;;;;;;;;;;13.99;51.95;100792.72;6113614;23;7880;-75
2022/03/14 02:39:04;;;;;;;;;;;;;;;13.99;52.30;100791.00;6137038;23;7807;-76
2022/03/14 02:41:31;;;;;;;;;;;;;;;14.01;51.78;100798.81;6114969;23;6858;-76
2022/03/14 02:43:57;;;;;;;;;;;;;;;14.04;51.99;100804.06;6113479;23;6953;-75
2022/03/14 02:46:23;;;;;;;;;;;;;;;14.06;51.81;100810.19;6089648;23;6976;-75
2022/03/14 02:48:48;;;;;;;;;;;;;;;14.08;51.36;100817.97;6113503;23;6999;-75
2022/03/14 02:51:14;;;;;;;;;;;;;;;14.11;52.02;100826.72;6112120;23;6794;-75
2022/03/14 02:53:40;;;;;;;;;;;;;;;14.13;51.72;100824.22;6113859;23;7094;-75
2022/03/14 02:56:05;;;;;;;;;;;;;;;14.15;51.93;100827.72;6114847;23;6862;-75
2022/03/14 02:58:32;;;;;;;;;;;;;;;14.17;50.96;100833.81;6113076;23;6787;-76
2022/03/14 03:01:00;;;;;;;;;;;;;;;14.19;51.09;100834.75;6113081;23;7032;-76
2022/03/14 03:03:27;;;;;;;;;;;;;;;14.23;50.51;100849.53;6118447;23;6982;-76
2022/03/14 03:05:53;;;;;;;;;;;;;;;14.24;50.75;100845.25;6118677;23;6953;-76
2022/03/14 03:08:22;;;;;;;;;;;;;;;14.24;50.98;100851.28;6117495;23;7796;-75
2022/03/14 03:10:48;;;;;;;;;;;;;;;14.23;51.07;100858.94;6117395;23;6790;-75
2022/03/14 03:13:15;;;;;;;;;;;;;;;14.21;50.22;100864.06;6090664;23;7138;-75
2022/03/14 03:15:40;;;;;;;;;;;;;;;14.21;50.38;100869.22;6117381;23;7050;-76
2022/03/14 03:18:07;;;;;;;;;;;;;;;14.21;50.08;100871.81;6119191;23;6770;-76
2022/03/14 03:20:33;;;;;;;;;;;;;;;14.20;50.30;100872.63;6119351;23;6782;-76
2022/03/14 03:22:59;;;;;;;;;;;;;;;14.21;49.69;100876.97;6092080;23;6858;-76
2022/03/14 03:25:24;;;;;;;;;;;;;;;14.19;50.54;100886.31;6119190;23;6786;-75
2022/03/14 03:27:50;;;;;;;;;;;;;;;14.19;50.24;100895.75;6093119;23;6885;-75
2022/03/14 03:30:16;;;;;;;;;;;;;;;14.16;49.65;100901.66;6118640;23;6782;-75
2022/03/14 03:32:42;;;;;;;;;;;;;;;14.15;49.59;100910.19;6116716;23;6782;-76
2022/03/14 03:35:09;;;;;;;;;;;;;;;14.13;50.04;100909.28;6118377;23;6787;-76
2022/03/14 03:37:34;;;;;;;;;;;;;;;14.13;50.33;100922.16;6118892;23;6783;-76
2022/03/14 03:40:01;;;;;;;;;;;;;;;14.11;49.54;100923.78;6117627;23;6850;-75
2022/03/14 03:42:26;;;;;;;;;;;;;;;14.10;49.86;100933.22;6092089;23;6787;-75
2022/03/14 03:44:52;;;;;;;;;;;;;;;14.10;50.42;100942.63;6118513;23;6969;-75
2022/03/14 03:47:18;;;;;;;;;;;;;;;14.09;50.22;100940.88;6117643;23;6775;-75
2022/03/14 03:49:43;;;;;;;;;;;;;;;14.08;49.75;100952.91;6117547;23;6786;-75
2022/03/14 03:52:09;;;;;;;;;;;;;;;14.08;50.16;100949.41;6117813;23;6926;-76
2022/03/14 03:54:35;;;;;;;;;;;;;;;14.08;50.08;100962.31;6119100;23;6850;-76
2022/03/14 03:57:01;;;;;;;;;;;;;;;14.08;50.19;100964.88;6117965;23;7303;-76
2022/03/14 03:59:26;;;;;;;;;;;;;;;14.08;50.55;100970.03;6118821;23;6766;-76
2022/03/14 04:01:52;;;;;;;;;;;;;;;14.09;49.47;100982.09;6118584;23;7803;-76
2022/03/14 04:04:18;;;;;;;;;;;;;;;14.07;49.30;100976.00;6088776;23;7192;-75
2022/03/14 04:06:44;;;;;;;;;;;;;;;14.08;49.73;100986.41;6114154;23;6880;-75
2022/03/14 04:09:10;;;;;;;;;;;;;;;14.08;49.86;100981.25;6113004;23;6978;-75
2022/03/14 04:11:37;;;;;;;;;;;;;;;14.07;49.43;100984.63;6112973;23;6888;-75
2022/03/14 04:14:03;;;;;;;;;;;;;;;14.09;49.93;100989.84;6086010;23;6858;-76
2022/03/14 04:16:29;;;;;;;;;;;;;;;14.09;49.95;101000.16;6109591;23;6910;-76
2022/03/14 04:18:56;;;;;;;;;;;;;;;14.08;49.55;101000.97;6134909;23;6786;-76
2022/03/14 04:21:23;;;;;;;;;;;;;;;14.06;49.25;101000.94;6133214;23;6930;-76
2022/03/14 04:23:49;;;;;;;;;;;;;;;14.03;49.94;100993.94;6112001;23;6862;-75
2022/03/14 04:26:15;;;;;;;;;;;;;;;14.02;49.86;101004.16;6110148;23;6770;-76
2022/03/14 04:28:41;;;;;;;;;;;;;;;14.01;49.71;101005.88;6109174;23;7030;-76
2022/03/14 04:31:09;;;;;;;;;;;;;;;13.99;49.65;101007.47;6112635;23;6790;-76
2022/03/14 04:33:36;;;;;;;;;;;;;;;13.98;50.24;101008.31;6111280;23;6956;-76
2022/03/14 04:36:04;;;;;;;;;;;;;;;13.96;50.53;101007.34;6090069;23;6983;-76
2022/03/14 04:38:30;;;;;;;;;;;;;;;13.94;49.89;101014.16;6088215;23;6859;-76
2022/03/14 04:40:56;;;;;;;;;;;;;;;13.93;49.86;101024.38;6111370;23;6774;-76
2022/03/14 04:43:22;;;;;;;;;;;;;;;13.89;50.26;101021.69;6111652;23;7051;-76
2022/03/14 04:45:49;;;;;;;;;;;;;;;13.87;50.60;101028.47;6113412;23;6929;-76
2022/03/14 04:48:16;;;;;;;;;;;;;;;13.85;49.91;101027.47;6111224;23;6952;-75
2022/03/14 04:50:42;;;;;;;;;;;;;;;13.84;49.99;101037.75;6112619;23;6948;-75
2022/03/14 04:53:09;;;;;;;;;;;;;;;13.82;50.87;101039.38;6088554;23;6783;-75
2022/03/14 04:55:36;;;;;;;;;;;;;;;13.80;50.26;101033.25;6111629;23;7209;-76
2022/03/14 04:58:06;;;;;;;;;;;;;;;13.78;50.33;101043.50;6088247;23;6871;-76
2022/03/14 05:00:34;;;;;;;;;;;;;;;13.77;50.34;101052.06;6110735;23;6964;-76
2022/03/14 05:03:04;;;;;;;;;;;;;;;13.76;51.14;101060.56;6135673;23;6783;-76
2022/03/14 05:05:30;;;;;;;;;;;;;;;13.75;50.63;101056.22;6113543;23;7155;-76
2022/03/14 05:07:56;;;;;;;;;;;;;;;13.74;50.94;101055.38;6088743;23;7045;-76
2022/03/14 05:10:22;;;;;;;;;;;;;;;13.75;50.90;101071.69;6114192;23;6850;-75
2022/03/14 05:12:49;;;;;;;;;;;;;;;13.75;50.72;101074.25;6134812;23;6985;-75
2022/03/14 05:15:17;;;;;;;;;;;;;;;13.75;50.59;101080.31;6111745;23;6787;-76
2022/03/14 05:17:45;;;;;;;;;;;;;;;13.77;51.30;101084.66;6111516;23;7159;-76
2022/03/14 05:20:12;;;;;;;;;;;;;;;13.78;51.17;101097.59;6111936;23;7142;-76
2022/03/14 05:22:46;;;;;;;;;;;;;;;13.79;50.81;101083.00;6110882;23;7167;-75
2022/03/14 05:25:12;;;;;;;;;;;;;;;13.78;50.35;101094.13;6115919;23;6855;-76
2022/03/14 05:27:39;;;;;;;;;;;;;;;13.78;50.55;101101.88;6112420;23;6770;-76
2022/03/14 05:30:08;;;;;;;;;;;;;;;13.78;50.47;101096.72;6112468;23;6974;-76
2022/03/14 05:32:39;;;;;;;;;;;;;;;13.79;51.02;101103.63;6136610;23;6961;-76
2022/03/14 05:35:11;;;;;;;;;;;;;;;13.77;50.58;101102.69;6113550;23;6958;-76
2022/03/14 05:37:39;;;;;;;;;;;;;;;13.78;51.04;101112.16;6111242;23;6978;-76
2022/03/14 05:40:07;;;;;;;;;;;;;;;13.78;50.06;101113.06;6112407;23;6795;-76
2022/03/14 05:42:32;;;;;;;;;;;;;;;13.78;51.07;101120.78;6111542;23;6962;-76
2022/03/14 05:44:58;;;;;;;;;;;;;;;13.78;50.20;101125.94;6112405;23;6823;-76
2022/03/14 05:47:24;;;;;;;;;;;;;;;13.77;50.26;101129.34;6112836;23;6998;-76
2022/03/14 05:49:50;;;;;;;;;;;;;;;13.77;50.73;101131.03;6113516;23;7184;-77
2022/03/14 05:52:16;;;;;;;;;;;;;;;13.75;50.49;101138.66;6137067;23;6870;-77
2022/03/14 05:54:41;;;;;;;;;;;;;;;13.75;50.30;101146.41;6113031;23;6838;-77
2022/03/14 05:57:07;;;;;;;;;;;;;;;13.74;50.21;101144.63;6114511;23;7776;-77
2022/03/14 05:59:33;;;;;;;;;;;;;;;13.72;50.92;101147.16;6112695;23;7098;-77
2022/03/14 06:01:58;;;;;;;;;;;;;;;13.71;50.50;101150.53;6135708;23;6763;-78
2022/03/14 06:04:24;;;;;;;;;;;;;;;13.71;51.10;101152.22;6089311;23;7604;-78
2022/03/14 06:06:50;;;;;;;;;;;;;;;13.68;51.02;101149.53;6088662;23;7067;-78
2022/03/14 06:09:15;;;;;;;;;;;;;;;13.68;50.91;101150.38;6112913;23;6910;-78
2022/03/14 06:11:42;;;;;;;;;;;;;;;13.64;50.13;101145.91;6111929;23;7317;-78
2022/03/14 06:14:08;;;;;;;;;;;;;;;13.63;51.17;101149.28;6113579;23;6994;-78
2022/03/14 06:16:34;;;;;;;;;;;;;;;13.60;50.50;101150.03;6112296;23;7122;-78
2022/03/14 06:19:00;;;;;;;;;;;;;;;13.58;50.67;101154.22;6114307;23;6946;-78
2022/03/14 06:21:25;;;;;;;;;;;;;;;13.56;51.00;101160.97;6114337;23;6778;-78
2022/03/14 06:23:51;;;;;;;;;;;;;;;13.56;51.29;101165.25;6113878;23;6782;-78
2022/03/14 06:26:17;;;;;;;;;;;;;;;13.53;50.44;101167.69;6112891;23;6791;-78
2022/03/14 06:28:43;;;;;;;;;;;;;;;13.52;51.49;101166.81;6113561;23;6766;-78
2022/03/14 06:31:11;;;;;;;;;;;;;;;13.50;51.52;101164.97;6111532;23;7326;-78
2022/03/14 06:33:39;;;;;;;;;;;;;;;13.49;50.67;101169.25;6112265;23;6964;-78
2022/03/14 06:36:05;;;;;;;;;;;;;;;13.47;51.00;101168.25;6113401;23;6786;-78
2022/03/14 06:38:34;;;;;;;;;;;;;;;13.46;51.27;101169.97;6112229;23;6853;-78
2022/03/14 06:41:01;;;;;;;;;;;;;;;13.47;50.86;101175.97;6113047;23;8099;-78
2022/03/14 06:43:28;;;;;;;;;;;;;;;13.47;51.40;101176.88;6114334;23;7054;-78
2022/03/14 06:45:54;;;;;;;;;;;;;;;13.47;51.25;101179.47;6113521;23;7153;-78
2022/03/14 06:48:19;;;;;;;;;;;;;;;13.50;51.43;101188.13;6111891;23;6820;-78
2022/03/14 06:50:45;;;;;;;;;;;;;;;13.52;51.47;101191.66;6114230;23;6974;-78
2022/03/14 06:53:11;;;;;;;;;;;;;;;13.53;51.24;101193.44;6086767;23;7875;-78
2022/03/14 06:55:36;;;;;;;;;;;;;;;13.54;51.81;101197.78;6137933;23;6758;-78
2022/03/14 06:58:02;;;;;;;;;;;;;;;13.54;50.89;101208.97;6114327;23;7812;-78
2022/03/14 07:00:28;;;;;;;;;;;;;;;13.54;51.76;101206.38;6113916;23;6873;-78
2022/03/14 07:02:54;;;;;;;;;;;;;;;13.56;51.69;101209.03;6088344;23;6767;-77
2022/03/14 07:05:23;;;;;;;;;;;;;;;13.56;50.87;101214.19;6114178;23;6791;-77
2022/03/14 07:07:53;;;;;;;;;;;;;;;13.57;51.91;101215.97;6114580;23;6779;-77
2022/03/14 07:10:20;;;;;;;;;;;;;;;13.57;52.04;101214.28;6139193;23;6952;-77
2022/03/14 07:12:48;;;;;;;;;;;;;;;13.57;50.81;101222.00;6113631;23;6779;-77
2022/03/14 07:15:23;;;;;;;;;;;;;;;13.60;51.38;101228.97;6114647;23;6858;-77
2022/03/14 07:17:50;;;;;;;;;;;;;;;13.62;51.20;101227.38;6090331;23;6862;-78
2022/03/14 07:20:19;;;;;;;;;;;;;;;13.63;51.53;101239.44;6114210;23;6962;-78
2022/03/14 07:23:00;;;;;;;;;;;;;;;13.65;50.84;101237.81;6114114;23;6782;-77
2022/03/14 07:25:32;;;;;;;;;;;;;;;13.68;51.69;101237.09;6114275;23;6778;-77
2022/03/14 07:28:05;;;;;;;;;;;;;;;13.72;51.55;101249.31;6113177;23;7192;-77
2022/03/14 07:30:30;;;;;;;;;;;;;;;13.76;51.23;101261.50;6116139;23;6922;-77
2022/03/14 07:32:56;;;;;;;;;;;;;;;13.81;51.75;101257.47;6112590;23;7955;-78
2022/03/14 07:35:24;;;;;;;;;;;;;;;13.86;51.42;101266.34;6115003;23;6774;-77
2022/03/14 07:37:50;;;;;;;;;;;;;;;13.89;50.65;101257.84;6113054;23;6941;-77
2022/03/14 07:40:17;;;;;;;;;;;;;;;13.97;51.20;101266.84;6114188;23;6795;-77
2022/03/14 07:42:48;;;;;;;;;;;;;;;14.02;50.67;101270.53;6113579;23;7223;-77
2022/03/14 07:45:18;;;;;;;;;;;;;;;14.10;51.61;101272.56;6090551;23;7889;-77
2022/03/14 07:47:44;;;;;;;;;;;;;;;14.15;50.90;101271.09;6116204;23;6791;-78
2022/03/14 07:50:13;;;;;;;;;;;;;;;14.21;50.53;101275.66;6137824;23;6917;-77
2022/03/14 07:52:39;;;;;;;;;;;;;;;14.25;51.17;101278.44;6112982;23;6775;-77
2022/03/14 07:55:07;;;;;;;;;;;;;;;14.29;50.29;101279.50;6114430;23;6795;-77
2022/03/14 07:57:34;;;;;;;;;;;;;;;14.32;50.50;101279.63;6113523;23;7414;-77
2022/03/14 08:00:00;;;;;;;;;;;;;;;14.33;50.31;101276.22;6114123;23;6787;-77
2022/03/14 08:02:26;;;;;;;;;;;;;;;14.39;50.07;101285.94;6112165;23;6786;-77
2022/03/14 08:04:52;;;;;;;;;;;;;;;14.43;50.22;101293.88;6114441;23;7022;-77
2022/03/14 08:07:20;;;;;;;;;;;;;;;14.48;50.49;101301.84;6114522;23;6934;-78
2022/03/14 08:09:50;;;;;;;;;;;;;;;14.57;50.68;101301.41;6113582;23;7151;-78
2022/03/14 08:12:16;;;;;;;;;;;;;;;14.62;50.43;101311.94;6113628;23;6941;-78
2022/03/14 08:14:43;;;;;;;;;;;;;;;14.66;50.17;101317.31;6114162;23;6787;-78
2022/03/14 08:17:10;;;;;;;;;;;;;;;14.71;49.69;101318.38;6114129;23;7640;-78
2022/03/14 08:19:35;;;;;;;;;;;;;;;14.74;49.93;101322.84;6113800;23;7210;-75
2022/03/14 08:22:02;;;;;;;;;;;;;;;14.77;49.83;101320.38;6113862;23;6778;-76
2022/03/14 08:24:28;;;;;;;;;;;;;;;14.80;49.54;101320.56;6114053;23;7863;-76
2022/03/14 08:26:54;;;;;;;;;;;;;;;14.83;49.51;101328.41;6115020;23;6806;-76
2022/03/14 08:29:20;;;;;;;;;;;;;;;14.89;49.87;101325.22;6112948;23;7687;-76
2022/03/14 08:31:46;;;;;;;;;;;;;;;14.97;49.88;101329.03;6114067;23;6941;-77
2022/03/14 08:34:12;;;;;;;;;;;;;;;15.08;49.35;101323.47;6114800;23;7128;-77
2022/03/14 08:36:40;;;;;;;;;;;;;;;15.25;49.81;101331.94;6115518;23;6770;-76
2022/03/14 08:39:08;;;;;;;;;;;;;;;15.39;49.06;101330.88;6090036;23;6791;-76
2022/03/14 08:41:36;;;;;;;;;;;;;;;15.46;48.75;101318.22;6112895;23;6795;-76
2022/03/14 08:44:07;;;;;;;;;;;;;;;15.50;48.34;101335.59;6107274;23;6961;-76
2022/03/14 08:46:34;;;;;;;;;;;;;;;15.48;47.72;101338.13;6088097;23;6956;-76
2022/03/14 08:49:01;;;;;;;;;;;;;;;15.49;48.29;101345.03;6113418;23;7134;-76
2022/03/14 08:51:28;;;;;;;;;;;;;;;15.55;47.88;101341.88;6112780;23;6941;-76
2022/03/14 08:53:54;;;;;;;;;;;;;;;15.62;47.99;101351.63;6088910;23;6949;-76
2022/03/14 08:56:20;;;;;;;;;;;;;;;15.72;47.46;101358.09;6113822;23;6949;-76
2022/03/14 08:58:46;;;;;;;;;;;;;;;15.85;48.09;101364.66;6112474;23;7013;-76
2022/03/14 09:01:12;;;;;;;;;;;;;;;16.00;47.66;101364.44;6114066;23;6991;-76
2022/03/14 09:03:38;;;;;;;;;;;;;;;16.09;46.61;101366.50;6112160;23;6992;-76
2022/03/14 09:06:05;;;;;;;;;;;;;;;16.15;47.04;101364.19;6113094;23;6779;-76
2022/03/14 09:08:31;;;;;;;;;;;;;;;16.22;45.97;101362.72;6089225;23;6787;-76
2022/03/14 09:11:00;;;;;;;;;;;;;;;16.27;46.53;101361.19;6112873;23;6782;-76
2022/03/14 09:13:28;;;;;;;;;;;;;;;16.32;46.13;101372.59;6112978;23;6826;-76
2022/03/14 09:15:54;;;;;;;;;;;;;;;16.32;45.75;101366.53;6112817;23;6892;-77
2022/03/14 09:18:21;;;;;;;;;;;;;;;16.33;45.63;101379.53;6113623;23;6942;-77
2022/03/14 09:20:49;;;;;;;;;;;;;;;16.34;45.55;101375.25;6113092;23;6790;-77
2022/03/14 09:23:20;;;;;;;;;;;;;;;16.31;45.72;101385.47;6112924;23;7963;-76
2022/03/14 09:25:49;;;;;;;;;;;;;;;16.30;45.40;101384.59;6110366;23;6786;-76
2022/03/14 09:28:16;;;;;;;;;;;;;;;16.36;45.82;101383.97;6113095;23;6790;-76
2022/03/14 09:30:42;;;;;;;;;;;;;;;16.42;45.42;101394.56;6112236;23;6992;-77
2022/03/14 09:33:07;;;;;;;;;;;;;;;16.48;44.96;101388.75;6136722;23;6798;-77
2022/03/14 09:35:34;;;;;;;;;;;;;;;16.52;44.86;101390.63;6113300;23;7058;-77
2022/03/14 09:38:00;;;;;;;;;;;;;;;16.48;44.59;101399.09;6112760;23;7820;-77
2022/03/14 09:40:28;;;;;;;;;;;;;;;16.43;44.42;101411.84;6112310;23;7139;-77
2022/03/14 09:42:59;;;;;;;;;;;;;;;16.40;44.12;101409.13;6112702;23;6791;-77
2022/03/14 09:45:26;;;;;;;;;;;;;;;16.39;43.97;101407.34;6113707;23;6981;-77
2022/03/14 09:47:58;;;;;;;;;;;;;;;16.37;44.39;101417.66;6114405;23;7013;-77
2022/03/14 09:50:29;;;;;;;;;;;;;;;16.40;44.16;101416.88;6089158;23;6946;-77
2022/03/14 09:52:55;;;;;;;;;;;;;;;16.49;44.46;101419.84;6112961;23;6790;-77
2022/03/14 09:55:21;;;;;;;;;;;;;;;16.60;44.46;101437.50;6114338;23;7175;-76
2022/03/14 09:57:48;;;;;;;;;;;;;;;16.71;44.03;101444.00;6113149;23;7359;-76
2022/03/14 10:00:14;;;;;;;;;;;;;;;16.80;43.74;101441.78;6113026;23;6791;-76
2022/03/14 10:02:42;;;;;;;;;;;;;;;16.88;43.41;101455.00;6112775;23;6787;-76
2022/03/14 10:05:12;;;;;;;;;;;;;;;16.96;43.02;101460.47;6113020;23;6790;-75
2022/03/14 10:07:40;;;;;;;;;;;;;;;17.04;42.94;101459.09;6112657;23;6864;-75
2022/03/14 10:10:07;;;;;;;;;;;;;;;17.20;42.63;101462.28;6113717;23;7032;-75
2022/03/14 10:12:33;;;;;;;;;;;;;;;17.38;42.84;101472.44;6086911;23;7161;-76
2022/03/14 10:15:05;;;;;;;;;;;;;;;17.48;42.27;101471.09;6113311;23;6845;-75
2022/03/14 10:17:32;;;;;;;;;;;;;;;17.51;41.64;101476.38;6112210;23;6783;-76
2022/03/14 10:20:06;;;;;;;;;;;;;;;17.55;41.68;101482.56;6112939;23;6959;-76
2022/03/14 10:22:38;;;;;;;;;;;;;;;17.58;41.72;101487.84;6114230;23;7008;-76
2022/03/14 10:25:09;;;;;;;;;;;;;;;17.61;41.81;101493.13;6112938;23;7111;-76
2022/03/14 10:27:35;;;;;;;;;;;;;;;17.56;41.68;101487.78;6137765;23;7039;-76
2022/03/14 10:30:03;;;;;;;;;;;;;;;17.55;41.55;101487.75;6112533;23;6851;-76
2022/03/14 10:32:30;;;;;;;;;;;;;;;17.53;41.39;101485.09;6090298;23;6783;-76
2022/03/14 10:35:05;;;;;;;;;;;;;;;17.60;41.53;101491.38;6139714;23;6783;-76
2022/03/14 10:37:33;;;;;;;;;;;;;;;17.68;41.56;101495.13;6090478;23;6778;-76
2022/03/14 10:40:05;;;;;;;;;;;;;;;17.74;41.22;101490.16;6114772;23;7448;-76
2022/03/14 10:42:42;;;;;;;;;;;;;;;17.79;41.25;101492.94;6113564;23;6795;-76
2022/03/14 10:45:18;;;;;;;;;;;;;;;17.86;41.51;101510.44;6139131;23;7027;-76
2022/03/14 10:47:57;;;;;;;;;;;;;;;17.96;41.01;101503.91;6113811;23;6850;-76
2022/03/14 10:50:39;;;;;;;;;;;;;;;18.06;41.32;101504.25;6115010;23;6782;-76
2022/03/14 10:53:09;;;;;;;;;;;;;;;18.14;40.44;101515.78;6090038;23;7650;-76
2022/03/14 10:55:41;;;;;;;;;;;;;;;18.24;40.39;101507.47;6138969;23;7409;-76
2022/03/14 10:58:33;;;;;;;;;;;;;;;18.37;40.19;101511.38;6114596;23;6990;-76
2022/03/14 11:01:10;;;;;;;;;;;;;;;18.40;40.55;101518.38;6105658;23;7175;-76
2022/03/14 11:03:39;;;;;;;;;;;;;;;18.39;40.10;101519.19;6114502;23;7087;-77
2022/03/14 11:06:14;;;;;;;;;;;;;;;18.39;40.70;101511.41;6114286;23;6927;-76
2022/03/14 11:08:46;;;;;;;;;;;;;;;18.40;40.35;101515.78;6113963;23;6878;-76
2022/03/14 11:11:14;;;;;;;;;;;;;;;18.44;39.75;101530.63;6113926;23;6775;-76
2022/03/14 11:13:42;;;;;;;;;;;;;;;18.42;40.32;101522.78;6114018;23;7001;-76
2022/03/14 11:16:21;;;;;;;;;;;;;;;18.37;39.90;101529.53;6113363;23;6782;-76
2022/03/14 11:18:51;;;;;;;;;;;;;;;18.21;39.92;101528.13;6114287;23;7279;-76
2022/03/14 11:21:20;;;;;;;;;;;;;;;18.07;39.96;101538.03;6113118;23;7030;-75
2022/03/14 11:23:48;;;;;;;;;;;;;;;17.96;40.08;101532.41;6114287;23;6859;-76
2022/03/14 11:26:19;;;;;;;;;;;;;;;17.85;40.35;101537.22;6112972;23;6838;-76
2022/03/14 11:28:48;;;;;;;;;;;;;;;17.80;40.36;101540.47;6114206;23;7162;-76
2022/03/14 11:31:19;;;;;;;;;;;;;;;17.73;40.40;101545.44;6112414;23;6941;-76
2022/03/14 11:33:47;;;;;;;;;;;;;;;17.73;40.46;101547.16;6115010;23;6946;-76
2022/03/14 11:36:17;;;;;;;;;;;;;;;17.74;40.35;101547.22;6088550;23;6954;-76
2022/03/14 11:38:44;;;;;;;;;;;;;;;17.74;40.25;101551.50;6112564;23;6947;-76
2022/03/14 11:41:10;;;;;;;;;;;;;;;17.80;40.93;101541.38;6113600;23;7498;-76
2022/03/14 11:43:41;;;;;;;;;;;;;;;18.07;41.09;101534.53;6115249;23;7460;-76
2022/03/14 11:46:08;;;;;;;;;;;;;;;18.40;39.56;101528.78;6088674;23;7144;-76
2022/03/14 11:48:35;;;;;;;;;;;;;;;18.68;39.13;101530.56;6139163;23;6858;-76
2022/03/14 11:51:08;;;;;;;;;;;;;;;19.09;38.90;101526.66;6089267;23;6822;-76
2022/03/14 11:53:46;;;;;;;;;;;;;;;19.83;38.03;101528.81;6113434;23;6960;-76
2022/03/14 11:56:12;;;;;;;;;;;;;;;21.01;37.16;101511.81;6113959;23;6940;-76
2022/03/14 11:58:41;;;;;;;;;;;;;;;22.08;35.65;101507.88;6113645;23;6767;-76
2022/03/14 12:01:21;;;;;;;;;;;;;;;22.93;34.26;101516.25;6138028;23;6778;-77
2022/03/14 12:03:59;;;;;;;;;;;;;;;23.48;33.37;101517.88;6116360;23;6786;-78
2022/03/14 12:06:46;;;;;;;;;;;;;;;23.69;32.96;101522.47;6114646;23;6949;-77
2022/03/14 12:09:24;;;;;;;;;;;;;;;23.51;32.44;101515.28;6113884;23;7297;-77
2022/03/14 12:11:52;;;;;;;;;;;;;;;23.03;32.02;101533.81;6114490;23;6867;-77
2022/03/14 12:14:44;;;;;;;;;;;;;;;22.26;32.70;101538.66;6114804;23;6933;-77
2022/03/14 12:17:13;;;;;;;;;;;;;;;21.60;33.45;101541.75;6089006;23;6778;-77
2022/03/14 12:19:50;;;;;;;;;;;;;;;21.08;33.95;101534.56;6112334;23;7049;-77
2022/03/14 12:22:28;;;;;;;;;;;;;;;20.68;35.00;101535.38;6113430;23;7484;-75
2022/03/14 12:24:54;;;;;;;;;;;;;;;20.43;34.83;101546.91;6114234;23;6882;-75
2022/03/14 12:27:35;;;;;;;;;;;;;;;20.21;35.10;101545.44;6113502;23;7080;-75
2022/03/14 12:30:16;;;;;;;;;;;;;;;19.87;35.65;101553.19;6113067;23;6782;-76
2022/03/14 12:32:44;;;;;;;;;;;;;;;19.54;36.03;101553.97;6112662;23;7082;-76
2022/03/14 12:35:16;;;;;;;;;;;;;;;19.23;35.76;101551.34;6112607;23;7086;-76
2022/03/14 12:37:44;;;;;;;;;;;;;;;18.98;36.56;101552.28;6115466;23;6786;-76
2022/03/14 12:40:19;;;;;;;;;;;;;;;18.79;36.47;101553.38;6114129;23;6950;-76
2022/03/14 12:43:10;;;;;;;;;;;;;;;18.71;36.96;101551.41;6115490;23;6840;-76
2022/03/14 12:45:47;;;;;;;;;;;;;;;18.79;37.21;101553.38;6117438;23;7095;-76
2022/03/14 12:48:38;;;;;;;;;;;;;;;18.97;37.74;101547.88;6113460;23;6871;-76
2022/03/14 12:51:08;;;;;;;;;;;;;;;19.09;37.02;101540.53;6113562;23;7812;-76
2022/03/14 12:53:34;;;;;;;;;;;;;;;19.13;37.08;101550.19;6112376;23;6782;-76
2022/03/14 12:56:22;;;;;;;;;;;;;;;19.09;36.56;101542.25;6115822;23;6775;-76
2022/03/14 12:58:56;;;;;;;;;;;;;;;19.04;36.75;101547.28;6111446;23;7178;-76
2022/03/14 13:01:24;;;;;;;;;;;;;;;18.98;37.15;101539.28;6088054;23;7113;-77
2022/03/14 13:03:50;;;;;;;;;;;;;;;18.96;36.66;101534.03;6089242;23;8410;-76